Aérodrome :







RETROUVEZ-NOUS SUR...

 
LOGIN :

S'inscrire | Disclaimer

   EN    FR    IT 

 









Légende :    VFR   VFR Marginal   IFR   IFR Intensif   IFR Très Intensif
Visi : 
Plafond : 
>= 8 km
>= 3000ft
5 à 8 km
1000 à 3000 ft
1500m à 5 km
500 à 1000 ft
800 à 1500m
200 à 500 ft
< 800m
< 200 ft
Symboles :   Orages  Brouillard  Fortes neiges  Fortes précipitations  Vent > 20 kt






- Altitude de l'aérodrome : 57 ft
- Code IATA : EPS


MDAB - Arroyo Barril International

DERNIER METAR :
  • 262000Z 09009KT 9999 BKN025 32/22 Q1012

METARs EXPIRÉS :
  • 261900Z 00000KT 8000-RA FEW015CB SCT016 27/26 Q1014 CB/W
  • 261800Z 00000KT 8000-RA FEW015CB SCT016 28/27 Q1015 CB/W
  • 261721Z 04004KT 8000-RA BKN017 XX/XX Q1015

Prévision TAF périmée.
FIR MDCS / Amérique du Nord



MET'MAP, la Météo Aéronautique d'un coup d'oeil ! - Copyright ORBIFLY Décembre 2007 - Disclaimer

ORBIFLY MET'MAP TEAM :

Programmation & Développement : Alexandra Zaïnal
Sur une idée originale de : Baudouin d'Aumeries
Assistance à la programmation : Marc-Olivier Méhu
Soutien technique & logistique : Manuel Goepfert

Contact : metmap@orbifly.com




SOURCES & CREDITS :

   NOAA